sensor_id;sensor_type;location;lat;lon;timestamp;temperature;humidity
68378;DHT22;55322;48.146;11.516;2022-11-23T00:01:46;4.53;93.43
68378;DHT22;55322;48.146;11.516;2022-11-23T00:04:12;4.48;94.15
68378;DHT22;55322;48.146;11.516;2022-11-23T00:06:38;4.48;95.06
68378;DHT22;55322;48.146;11.516;2022-11-23T00:09:04;4.45;95.53
68378;DHT22;55322;48.146;11.516;2022-11-23T00:11:30;4.48;94.95
68378;DHT22;55322;48.146;11.516;2022-11-23T00:13:57;4.48;94.91
68378;DHT22;55322;48.146;11.516;2022-11-23T00:16:25;4.52;94.92
68378;DHT22;55322;48.146;11.516;2022-11-23T00:18:52;4.54;94.81
68378;DHT22;55322;48.146;11.516;2022-11-23T00:21:18;4.56;94.97
68378;DHT22;55322;48.146;11.516;2022-11-23T00:23:44;4.54;94.91
68378;DHT22;55322;48.146;11.516;2022-11-23T00:26:11;4.50;95.00
68378;DHT22;55322;48.146;11.516;2022-11-23T00:28:36;4.57;95.24
68378;DHT22;55322;48.146;11.516;2022-11-23T00:31:08;4.54;94.98
68378;DHT22;55322;48.146;11.516;2022-11-23T00:33:34;4.60;94.52
68378;DHT22;55322;48.146;11.516;2022-11-23T00:36:00;4.64;94.26
68378;DHT22;55322;48.146;11.516;2022-11-23T00:38:26;4.64;94.44
68378;DHT22;55322;48.146;11.516;2022-11-23T00:40:59;4.69;93.76
68378;DHT22;55322;48.146;11.516;2022-11-23T00:43:26;4.70;93.06
68378;DHT22;55322;48.146;11.516;2022-11-23T00:48:30;4.76;93.75
68378;DHT22;55322;48.146;11.516;2022-11-23T00:50:55;4.77;93.25
68378;DHT22;55322;48.146;11.516;2022-11-23T00:53:20;4.77;93.15
68378;DHT22;55322;48.146;11.516;2022-11-23T00:55:53;4.77;93.37
68378;DHT22;55322;48.146;11.516;2022-11-23T00:58:18;4.72;93.96
68378;DHT22;55322;48.146;11.516;2022-11-23T01:00:43;4.70;93.94
68378;DHT22;55322;48.146;11.516;2022-11-23T01:03:09;4.72;93.87
68378;DHT22;55322;48.146;11.516;2022-11-23T01:05:38;4.70;93.76
68378;DHT22;55322;48.146;11.516;2022-11-23T01:08:04;4.70;93.18
68378;DHT22;55322;48.146;11.516;2022-11-23T01:10:30;4.73;93.14
68378;DHT22;55322;48.146;11.516;2022-11-23T01:12:55;4.72;93.18
68378;DHT22;55322;48.146;11.516;2022-11-23T01:15:21;4.72;93.10
68378;DHT22;55322;48.146;11.516;2022-11-23T01:17:46;4.69;92.89
68378;DHT22;55322;48.146;11.516;2022-11-23T01:20:11;4.67;92.82
68378;DHT22;55322;48.146;11.516;2022-11-23T01:22:37;4.66;93.15
68378;DHT22;55322;48.146;11.516;2022-11-23T01:25:02;4.70;93.18
68378;DHT22;55322;48.146;11.516;2022-11-23T01:27:27;4.66;93.30
68378;DHT22;55322;48.146;11.516;2022-11-23T01:29:53;4.66;93.35
68378;DHT22;55322;48.146;11.516;2022-11-23T01:32:18;4.63;93.21
68378;DHT22;55322;48.146;11.516;2022-11-23T01:34:43;4.63;93.32
68378;DHT22;55322;48.146;11.516;2022-11-23T01:37:08;4.62;93.21
68378;DHT22;55322;48.146;11.516;2022-11-23T01:39:34;4.66;93.29
68378;DHT22;55322;48.146;11.516;2022-11-23T01:41:59;4.62;92.97
68378;DHT22;55322;48.146;11.516;2022-11-23T01:44:32;4.59;93.02
68378;DHT22;55322;48.146;11.516;2022-11-23T01:47:04;4.59;93.14
68378;DHT22;55322;48.146;11.516;2022-11-23T01:49:37;4.56;92.82
68378;DHT22;55322;48.146;11.516;2022-11-23T01:52:07;4.52;92.86
68378;DHT22;55322;48.146;11.516;2022-11-23T01:54:38;4.54;92.80
68378;DHT22;55322;48.146;11.516;2022-11-23T01:57:09;4.46;93.17
68378;DHT22;55322;48.146;11.516;2022-11-23T01:59:35;4.43;93.24
68378;DHT22;55322;48.146;11.516;2022-11-23T02:02:02;4.45;93.42
68378;DHT22;55322;48.146;11.516;2022-11-23T02:04:35;4.39;93.69
68378;DHT22;55322;48.146;11.516;2022-11-23T02:07:02;4.40;93.17
68378;DHT22;55322;48.146;11.516;2022-11-23T02:09:30;4.40;93.67
68378;DHT22;55322;48.146;11.516;2022-11-23T02:11:56;4.42;93.38
68378;DHT22;55322;48.146;11.516;2022-11-23T02:14:22;4.40;93.35
68378;DHT22;55322;48.146;11.516;2022-11-23T02:16:47;4.46;93.49
68378;DHT22;55322;48.146;11.516;2022-11-23T02:21:48;4.43;93.37
68378;DHT22;55322;48.146;11.516;2022-11-23T02:24:37;4.40;93.53
68378;DHT22;55322;48.146;11.516;2022-11-23T02:27:04;4.33;93.21
68378;DHT22;55322;48.146;11.516;2022-11-23T02:29:31;4.28;93.38
68378;DHT22;55322;48.146;11.516;2022-11-23T02:31:57;4.20;93.37
68378;DHT22;55322;48.146;11.516;2022-11-23T02:34:22;4.12;93.57
68378;DHT22;55322;48.146;11.516;2022-11-23T02:36:54;4.08;93.78
68378;DHT22;55322;48.146;11.516;2022-11-23T02:39:55;4.03;93.86
68378;DHT22;55322;48.146;11.516;2022-11-23T02:42:22;3.97;93.97
68378;DHT22;55322;48.146;11.516;2022-11-23T02:44:59;3.91;93.90
68378;DHT22;55322;48.146;11.516;2022-11-23T02:47:29;3.87;93.98
68378;DHT22;55322;48.146;11.516;2022-11-23T02:49:54;3.74;94.57
68378;DHT22;55322;48.146;11.516;2022-11-23T02:52:20;3.63;95.24
68378;DHT22;55322;48.146;11.516;2022-11-23T02:54:45;3.54;95.37
68378;DHT22;55322;48.146;11.516;2022-11-23T02:57:11;3.53;95.17
68378;DHT22;55322;48.146;11.516;2022-11-23T02:59:36;3.37;95.35
68378;DHT22;55322;48.146;11.516;2022-11-23T03:02:03;3.35;95.15
68378;DHT22;55322;48.146;11.516;2022-11-23T03:04:28;3.31;95.19
68378;DHT22;55322;48.146;11.516;2022-11-23T03:06:54;3.31;95.25
68378;DHT22;55322;48.146;11.516;2022-11-23T03:09:20;3.31;95.26
68378;DHT22;55322;48.146;11.516;2022-11-23T03:11:45;3.28;95.20
68378;DHT22;55322;48.146;11.516;2022-11-23T03:14:11;3.26;95.27
68378;DHT22;55322;48.146;11.516;2022-11-23T03:16:36;3.33;95.28
68378;DHT22;55322;48.146;11.516;2022-11-23T03:19:01;3.34;95.22
68378;DHT22;55322;48.146;11.516;2022-11-23T03:21:27;3.31;95.27
68378;DHT22;55322;48.146;11.516;2022-11-23T03:23:54;3.37;95.32
68378;DHT22;55322;48.146;11.516;2022-11-23T03:26:19;3.33;95.24
68378;DHT22;55322;48.146;11.516;2022-11-23T03:28:45;3.40;95.25
68378;DHT22;55322;48.146;11.516;2022-11-23T03:31:10;3.43;95.06
68378;DHT22;55322;48.146;11.516;2022-11-23T03:33:35;3.31;95.10
68378;DHT22;55322;48.146;11.516;2022-11-23T03:36:00;3.34;95.08
68378;DHT22;55322;48.146;11.516;2022-11-23T03:38:26;3.30;94.80
68378;DHT22;55322;48.146;11.516;2022-11-23T03:40:52;3.19;95.15
68378;DHT22;55322;48.146;11.516;2022-11-23T03:43:17;3.16;95.04
68378;DHT22;55322;48.146;11.516;2022-11-23T03:45:43;3.13;95.19
68378;DHT22;55322;48.146;11.516;2022-11-23T03:48:09;3.19;95.30
68378;DHT22;55322;48.146;11.516;2022-11-23T03:50:34;3.22;95.26
68378;DHT22;55322;48.146;11.516;2022-11-23T03:53:00;3.19;95.16
68378;DHT22;55322;48.146;11.516;2022-11-23T03:55:25;3.10;95.08
68378;DHT22;55322;48.146;11.516;2022-11-23T03:57:51;3.09;95.09
68378;DHT22;55322;48.146;11.516;2022-11-23T04:00:19;3.06;95.24
68378;DHT22;55322;48.146;11.516;2022-11-23T04:02:45;2.96;94.98
68378;DHT22;55322;48.146;11.516;2022-11-23T04:05:10;2.88;95.05
68378;DHT22;55322;48.146;11.516;2022-11-23T04:07:36;2.93;95.41
68378;DHT22;55322;48.146;11.516;2022-11-23T04:10:02;2.95;95.61
68378;DHT22;55322;48.146;11.516;2022-11-23T04:12:27;2.97;95.68
68378;DHT22;55322;48.146;11.516;2022-11-23T04:14:52;2.97;95.78
68378;DHT22;55322;48.146;11.516;2022-11-23T04:17:18;3.00;95.79
68378;DHT22;55322;48.146;11.516;2022-11-23T04:19:43;3.04;95.74
68378;DHT22;55322;48.146;11.516;2022-11-23T04:22:09;3.03;95.70
68378;DHT22;55322;48.146;11.516;2022-11-23T04:24:34;3.03;95.67
68378;DHT22;55322;48.146;11.516;2022-11-23T04:27:00;3.00;95.73
68378;DHT22;55322;48.146;11.516;2022-11-23T04:29:25;2.99;95.65
68378;DHT22;55322;48.146;11.516;2022-11-23T04:31:51;2.88;95.73
68378;DHT22;55322;48.146;11.516;2022-11-23T04:34:16;2.86;95.64
68378;DHT22;55322;48.146;11.516;2022-11-23T04:36:42;2.80;95.64
68378;DHT22;55322;48.146;11.516;2022-11-23T04:39:07;2.78;95.48
68378;DHT22;55322;48.146;11.516;2022-11-23T04:41:33;2.76;95.68
68378;DHT22;55322;48.146;11.516;2022-11-23T04:43:58;2.78;95.96
68378;DHT22;55322;48.146;11.516;2022-11-23T04:46:23;2.83;96.32
68378;DHT22;55322;48.146;11.516;2022-11-23T04:48:49;2.88;96.34
68378;DHT22;55322;48.146;11.516;2022-11-23T04:51:14;3.00;96.27
68378;DHT22;55322;48.146;11.516;2022-11-23T04:53:40;3.04;96.30
68378;DHT22;55322;48.146;11.516;2022-11-23T04:56:06;3.10;96.26
68378;DHT22;55322;48.146;11.516;2022-11-23T04:58:31;3.14;95.89
68378;DHT22;55322;48.146;11.516;2022-11-23T05:00:57;3.16;96.02
68378;DHT22;55322;48.146;11.516;2022-11-23T05:03:23;3.24;95.67
68378;DHT22;55322;48.146;11.516;2022-11-23T05:05:48;3.26;95.44
68378;DHT22;55322;48.146;11.516;2022-11-23T05:08:14;3.30;95.44
68378;DHT22;55322;48.146;11.516;2022-11-23T05:10:39;3.35;94.99
68378;DHT22;55322;48.146;11.516;2022-11-23T05:13:04;3.38;94.74
68378;DHT22;55322;48.146;11.516;2022-11-23T05:15:30;3.43;94.85
68378;DHT22;55322;48.146;11.516;2022-11-23T05:18:03;3.45;94.48
68378;DHT22;55322;48.146;11.516;2022-11-23T05:20:30;3.50;94.51
68378;DHT22;55322;48.146;11.516;2022-11-23T05:22:55;3.48;95.00
68378;DHT22;55322;48.146;11.516;2022-11-23T05:25:21;3.50;94.91
68378;DHT22;55322;48.146;11.516;2022-11-23T05:27:46;3.54;94.76
68378;DHT22;55322;48.146;11.516;2022-11-23T05:30:12;3.55;95.32
68378;DHT22;55322;48.146;11.516;2022-11-23T05:32:37;3.57;95.05
68378;DHT22;55322;48.146;11.516;2022-11-23T05:35:03;3.58;94.45
68378;DHT22;55322;48.146;11.516;2022-11-23T05:37:28;3.57;93.92
68378;DHT22;55322;48.146;11.516;2022-11-23T05:39:54;3.60;94.26
68378;DHT22;55322;48.146;11.516;2022-11-23T05:42:19;3.61;94.31
68378;DHT22;55322;48.146;11.516;2022-11-23T05:44:44;3.65;93.63
68378;DHT22;55322;48.146;11.516;2022-11-23T05:47:09;3.71;93.61
68378;DHT22;55322;48.146;11.516;2022-11-23T05:49:35;3.73;93.53
68378;DHT22;55322;48.146;11.516;2022-11-23T05:52:00;3.75;93.58
68378;DHT22;55322;48.146;11.516;2022-11-23T05:54:25;3.77;93.49
68378;DHT22;55322;48.146;11.516;2022-11-23T05:56:51;3.77;93.75
68378;DHT22;55322;48.146;11.516;2022-11-23T05:59:16;3.78;93.51
68378;DHT22;55322;48.146;11.516;2022-11-23T06:01:41;3.75;93.18
68378;DHT22;55322;48.146;11.516;2022-11-23T06:04:07;3.75;93.65
68378;DHT22;55322;48.146;11.516;2022-11-23T06:06:32;3.77;93.72
68378;DHT22;55322;48.146;11.516;2022-11-23T06:08:57;3.74;93.61
68378;DHT22;55322;48.146;11.516;2022-11-23T06:11:23;3.71;94.07
68378;DHT22;55322;48.146;11.516;2022-11-23T06:13:48;3.74;93.84
68378;DHT22;55322;48.146;11.516;2022-11-23T06:16:14;3.74;93.42
68378;DHT22;55322;48.146;11.516;2022-11-23T06:18:40;3.71;93.56
68378;DHT22;55322;48.146;11.516;2022-11-23T06:21:05;3.71;93.69
68378;DHT22;55322;48.146;11.516;2022-11-23T06:23:31;3.70;93.96
68378;DHT22;55322;48.146;11.516;2022-11-23T06:26:00;3.70;93.81
68378;DHT22;55322;48.146;11.516;2022-11-23T06:28:25;3.73;93.81
68378;DHT22;55322;48.146;11.516;2022-11-23T06:30:51;3.77;93.71
68378;DHT22;55322;48.146;11.516;2022-11-23T06:33:16;3.78;93.61
68378;DHT22;55322;48.146;11.516;2022-11-23T06:35:42;3.92;93.43
68378;DHT22;55322;48.146;11.516;2022-11-23T06:38:07;3.89;92.92
68378;DHT22;55322;48.146;11.516;2022-11-23T06:40:32;3.88;93.21
68378;DHT22;55322;48.146;11.516;2022-11-23T06:42:58;3.91;93.12
68378;DHT22;55322;48.146;11.516;2022-11-23T06:45:24;3.92;93.23
68378;DHT22;55322;48.146;11.516;2022-11-23T06:47:49;3.95;93.11
68378;DHT22;55322;48.146;11.516;2022-11-23T06:50:15;3.98;92.98
68378;DHT22;55322;48.146;11.516;2022-11-23T06:52:40;4.05;93.63
68378;DHT22;55322;48.146;11.516;2022-11-23T06:55:06;4.23;93.77
68378;DHT22;55322;48.146;11.516;2022-11-23T06:57:31;4.18;92.05
68378;DHT22;55322;48.146;11.516;2022-11-23T06:59:56;4.16;92.11
68378;DHT22;55322;48.146;11.516;2022-11-23T07:02:21;4.20;92.43
68378;DHT22;55322;48.146;11.516;2022-11-23T07:04:47;4.22;92.43
68378;DHT22;55322;48.146;11.516;2022-11-23T07:07:12;4.22;92.05
68378;DHT22;55322;48.146;11.516;2022-11-23T07:09:37;4.22;91.56
68378;DHT22;55322;48.146;11.516;2022-11-23T07:12:03;4.28;91.57
68378;DHT22;55322;48.146;11.516;2022-11-23T07:14:28;4.30;91.60
68378;DHT22;55322;48.146;11.516;2022-11-23T07:16:54;4.30;91.40
68378;DHT22;55322;48.146;11.516;2022-11-23T07:19:19;4.36;91.15
68378;DHT22;55322;48.146;11.516;2022-11-23T07:21:44;4.36;91.51
68378;DHT22;55322;48.146;11.516;2022-11-23T07:24:10;4.43;91.97
68378;DHT22;55322;48.146;11.516;2022-11-23T07:26:35;4.45;91.11
68378;DHT22;55322;48.146;11.516;2022-11-23T07:29:00;4.48;91.07
68378;DHT22;55322;48.146;11.516;2022-11-23T07:31:26;4.54;91.76
68378;DHT22;55322;48.146;11.516;2022-11-23T07:33:51;4.63;91.38
68378;DHT22;55322;48.146;11.516;2022-11-23T07:36:17;4.72;91.36
68378;DHT22;55322;48.146;11.516;2022-11-23T07:38:43;4.79;90.74
68378;DHT22;55322;48.146;11.516;2022-11-23T07:41:08;4.83;91.07
68378;DHT22;55322;48.146;11.516;2022-11-23T07:43:34;4.87;90.65
68378;DHT22;55322;48.146;11.516;2022-11-23T07:45:59;4.93;90.36
68378;DHT22;55322;48.146;11.516;2022-11-23T07:48:24;5.01;89.42
68378;DHT22;55322;48.146;11.516;2022-11-23T07:50:53;5.08;89.63
68378;DHT22;55322;48.146;11.516;2022-11-23T07:53:18;5.18;89.97
68378;DHT22;55322;48.146;11.516;2022-11-23T07:55:44;5.23;88.96
68378;DHT22;55322;48.146;11.516;2022-11-23T07:58:10;5.30;88.90
68378;DHT22;55322;48.146;11.516;2022-11-23T08:00:36;5.30;88.58
68378;DHT22;55322;48.146;11.516;2022-11-23T08:03:01;5.39;88.47
68378;DHT22;55322;48.146;11.516;2022-11-23T08:05:27;5.32;87.47
68378;DHT22;55322;48.146;11.516;2022-11-23T08:08:02;5.34;87.32
68378;DHT22;55322;48.146;11.516;2022-11-23T08:10:29;5.44;86.82
68378;DHT22;55322;48.146;11.516;2022-11-23T08:13:03;5.42;86.30
68378;DHT22;55322;48.146;11.516;2022-11-23T08:15:29;5.59;87.04
68378;DHT22;55322;48.146;11.516;2022-11-23T08:17:59;5.75;86.73
68378;DHT22;55322;48.146;11.516;2022-11-23T08:20:26;5.93;86.58
68378;DHT22;55322;48.146;11.516;2022-11-23T08:22:51;6.00;85.66
68378;DHT22;55322;48.146;11.516;2022-11-23T08:25:23;6.23;85.77
68378;DHT22;55322;48.146;11.516;2022-11-23T08:28:02;6.26;84.25
68378;DHT22;55322;48.146;11.516;2022-11-23T08:30:29;6.38;84.17
68378;DHT22;55322;48.146;11.516;2022-11-23T08:32:55;6.57;84.69
68378;DHT22;55322;48.146;11.516;2022-11-23T08:35:20;6.65;82.85
68378;DHT22;55322;48.146;11.516;2022-11-23T08:37:46;6.57;82.79
68378;DHT22;55322;48.146;11.516;2022-11-23T08:40:12;6.67;81.43
68378;DHT22;55322;48.146;11.516;2022-11-23T08:42:38;6.64;81.55
68378;DHT22;55322;48.146;11.516;2022-11-23T08:45:04;6.64;81.39
68378;DHT22;55322;48.146;11.516;2022-11-23T08:47:31;6.61;81.21
68378;DHT22;55322;48.146;11.516;2022-11-23T08:49:57;6.63;82.32
68378;DHT22;55322;48.146;11.516;2022-11-23T08:52:22;6.73;81.76
68378;DHT22;55322;48.146;11.516;2022-11-23T08:54:48;6.78;82.93
68378;DHT22;55322;48.146;11.516;2022-11-23T08:57:13;6.87;80.41
68378;DHT22;55322;48.146;11.516;2022-11-23T08:59:38;6.83;80.68
68378;DHT22;55322;48.146;11.516;2022-11-23T09:02:03;6.87;80.60
68378;DHT22;55322;48.146;11.516;2022-11-23T09:04:29;6.88;81.16
68378;DHT22;55322;48.146;11.516;2022-11-23T09:06:55;6.98;80.31
68378;DHT22;55322;48.146;11.516;2022-11-23T09:09:20;7.01;80.47
68378;DHT22;55322;48.146;11.516;2022-11-23T09:11:46;7.15;81.37
68378;DHT22;55322;48.146;11.516;2022-11-23T09:14:11;7.25;79.67
68378;DHT22;55322;48.146;11.516;2022-11-23T09:16:37;7.30;79.32
68378;DHT22;55322;48.146;11.516;2022-11-23T09:19:02;7.36;79.93
68378;DHT22;55322;48.146;11.516;2022-11-23T09:21:27;7.29;78.00
68378;DHT22;55322;48.146;11.516;2022-11-23T09:23:57;7.42;77.64
68378;DHT22;55322;48.146;11.516;2022-11-23T09:26:23;7.56;77.99
68378;DHT22;55322;48.146;11.516;2022-11-23T09:28:48;7.60;76.46
68378;DHT22;55322;48.146;11.516;2022-11-23T09:31:13;7.82;77.21
68378;DHT22;55322;48.146;11.516;2022-11-23T09:33:39;7.90;77.68
68378;DHT22;55322;48.146;11.516;2022-11-23T09:36:04;8.40;75.10
68378;DHT22;55322;48.146;11.516;2022-11-23T09:38:30;9.24;72.68
68378;DHT22;55322;48.146;11.516;2022-11-23T09:44:20;11.17;66.34
68378;DHT22;55322;48.146;11.516;2022-11-23T09:49:44;12.75;59.26
68378;DHT22;55322;48.146;11.516;2022-11-23T09:52:18;13.04;57.67
68378;DHT22;55322;48.146;11.516;2022-11-23T09:54:45;13.04;55.73
68378;DHT22;55322;48.146;11.516;2022-11-23T09:57:15;13.79;53.91
68378;DHT22;55322;48.146;11.516;2022-11-23T10:00:19;13.92;51.85
68378;DHT22;55322;48.146;11.516;2022-11-23T10:02:45;13.99;51.81
68378;DHT22;55322;48.146;11.516;2022-11-23T10:05:17;14.08;50.26
68378;DHT22;55322;48.146;11.516;2022-11-23T10:08:05;13.95;51.69
68378;DHT22;55322;48.146;11.516;2022-11-23T10:13:43;13.85;53.71
68378;DHT22;55322;48.146;11.516;2022-11-23T10:16:47;14.10;52.17
68378;DHT22;55322;48.146;11.516;2022-11-23T10:19:46;14.04;52.29
68378;DHT22;55322;48.146;11.516;2022-11-23T10:22:21;14.25;51.04
68378;DHT22;55322;48.146;11.516;2022-11-23T10:24:52;14.04;52.51
68378;DHT22;55322;48.146;11.516;2022-11-23T10:27:20;14.64;50.13
68378;DHT22;55322;48.146;11.516;2022-11-23T10:29:47;13.89;48.18
68378;DHT22;55322;48.146;11.516;2022-11-23T10:32:25;14.64;49.33
68378;DHT22;55322;48.146;11.516;2022-11-23T10:35:11;14.69;48.98
68378;DHT22;55322;48.146;11.516;2022-11-23T10:37:38;14.64;48.04
68378;DHT22;55322;48.146;11.516;2022-11-23T10:42:42;13.90;51.51
68378;DHT22;55322;48.146;11.516;2022-11-23T10:45:23;13.68;50.57
68378;DHT22;55322;48.146;11.516;2022-11-23T10:47:51;13.81;50.91
68378;DHT22;55322;48.146;11.516;2022-11-23T10:50:27;13.89;48.82
68378;DHT22;55322;48.146;11.516;2022-11-23T10:53:18;13.00;50.48
68378;DHT22;55322;48.146;11.516;2022-11-23T10:55:53;12.73;50.69
68378;DHT22;55322;48.146;11.516;2022-11-23T10:58:31;13.24;49.94
68378;DHT22;55322;48.146;11.516;2022-11-23T11:01:03;13.20;52.17
68378;DHT22;55322;48.146;11.516;2022-11-23T11:03:31;13.38;51.53
68378;DHT22;55322;48.146;11.516;2022-11-23T11:05:57;13.64;51.10
68378;DHT22;55322;48.146;11.516;2022-11-23T11:08:30;12.89;52.04
68378;DHT22;55322;48.146;11.516;2022-11-23T11:11:01;13.18;53.15
68378;DHT22;55322;48.146;11.516;2022-11-23T11:13:31;13.35;51.46
68378;DHT22;55322;48.146;11.516;2022-11-23T11:15:58;13.82;50.24
68378;DHT22;55322;48.146;11.516;2022-11-23T11:18:25;13.71;50.52
68378;DHT22;55322;48.146;11.516;2022-11-23T11:21:18;13.35;51.34
68378;DHT22;55322;48.146;11.516;2022-11-23T11:23:53;13.21;52.14
68378;DHT22;55322;48.146;11.516;2022-11-23T11:26:24;12.33;54.91
68378;DHT22;55322;48.146;11.516;2022-11-23T11:29:01;13.11;53.46
68378;DHT22;55322;48.146;11.516;2022-11-23T11:31:50;13.71;50.23
68378;DHT22;55322;48.146;11.516;2022-11-23T11:34:26;13.85;48.47
68378;DHT22;55322;48.146;11.516;2022-11-23T11:37:03;13.11;52.65
68378;DHT22;55322;48.146;11.516;2022-11-23T11:39:57;12.84;49.97
68378;DHT22;55322;48.146;11.516;2022-11-23T11:42:45;12.43;52.18
68378;DHT22;55322;48.146;11.516;2022-11-23T11:45:17;11.92;54.37
68378;DHT22;55322;48.146;11.516;2022-11-23T11:47:49;10.90;54.44
68378;DHT22;55322;48.146;11.516;2022-11-23T11:50:22;10.56;60.51
68378;DHT22;55322;48.146;11.516;2022-11-23T11:52:50;10.45;59.70
68378;DHT22;55322;48.146;11.516;2022-11-23T11:55:59;10.62;60.13
68378;DHT22;55322;48.146;11.516;2022-11-23T11:58:27;11.04;55.56
68378;DHT22;55322;48.146;11.516;2022-11-23T12:01:03;10.96;58.18
68378;DHT22;55322;48.146;11.516;2022-11-23T12:03:50;10.77;57.91
68378;DHT22;55322;48.146;11.516;2022-11-23T12:06:22;10.90;57.80
68378;DHT22;55322;48.146;11.516;2022-11-23T12:09:10;10.84;57.02
68378;DHT22;55322;48.146;11.516;2022-11-23T12:11:37;10.56;56.71
68378;DHT22;55322;48.146;11.516;2022-11-23T12:14:03;10.07;60.01
68378;DHT22;55322;48.146;11.516;2022-11-23T12:16:54;10.09;60.80
68378;DHT22;55322;48.146;11.516;2022-11-23T12:25:03;9.87;57.00
68378;DHT22;55322;48.146;11.516;2022-11-23T12:33:00;9.60;58.88
68378;DHT22;55322;48.146;11.516;2022-11-23T12:35:57;9.12;58.27
68378;DHT22;55322;48.146;11.516;2022-11-23T12:44:28;9.34;59.37
68378;DHT22;55322;48.146;11.516;2022-11-23T12:49:45;9.48;58.77
68378;DHT22;55322;48.146;11.516;2022-11-23T12:55:13;9.30;56.94
68378;DHT22;55322;48.146;11.516;2022-11-23T12:58:05;9.15;58.12
68378;DHT22;55322;48.146;11.516;2022-11-23T13:00:34;9.15;62.06
68378;DHT22;55322;48.146;11.516;2022-11-23T13:11:33;9.16;64.56
68378;DHT22;55322;48.146;11.516;2022-11-23T13:17:20;9.10;60.13
68378;DHT22;55322;48.146;11.516;2022-11-23T13:20:19;9.29;61.44
68378;DHT22;55322;48.146;11.516;2022-11-23T13:22:46;9.29;60.79
68378;DHT22;55322;48.146;11.516;2022-11-23T13:33:02;9.32;59.26
68378;DHT22;55322;48.146;11.516;2022-11-23T13:40:35;9.48;59.57
68378;DHT22;55322;48.146;11.516;2022-11-23T13:43:17;9.24;60.04
68378;DHT22;55322;48.146;11.516;2022-11-23T13:45:43;9.16;63.33
68378;DHT22;55322;48.146;11.516;2022-11-23T13:53:28;8.86;60.09
68378;DHT22;55322;48.146;11.516;2022-11-23T13:56:14;8.95;60.15
68378;DHT22;55322;48.146;11.516;2022-11-23T13:58:50;8.93;58.54
68378;DHT22;55322;48.146;11.516;2022-11-23T14:04:23;8.86;59.66
68378;DHT22;55322;48.146;11.516;2022-11-23T14:06:55;8.83;61.53
68378;DHT22;55322;48.146;11.516;2022-11-23T14:15:00;8.68;58.01
68378;DHT22;55322;48.146;11.516;2022-11-23T14:29:00;8.52;58.75
68378;DHT22;55322;48.146;11.516;2022-11-23T14:34:19;8.30;61.36
68378;DHT22;55322;48.146;11.516;2022-11-23T14:36:58;8.20;62.82
68378;DHT22;55322;48.146;11.516;2022-11-23T14:42:20;8.11;64.57
68378;DHT22;55322;48.146;11.516;2022-11-23T14:44:47;8.01;64.53
68378;DHT22;55322;48.146;11.516;2022-11-23T14:47:24;8.01;64.73
68378;DHT22;55322;48.146;11.516;2022-11-23T14:49:50;7.94;66.63
68378;DHT22;55322;48.146;11.516;2022-11-23T14:52:21;7.84;67.09
68378;DHT22;55322;48.146;11.516;2022-11-23T14:54:49;7.90;65.80
68378;DHT22;55322;48.146;11.516;2022-11-23T14:57:15;7.80;67.65
68378;DHT22;55322;48.146;11.516;2022-11-23T14:59:40;7.65;69.05
68378;DHT22;55322;48.146;11.516;2022-11-23T15:02:33;7.49;69.34
68378;DHT22;55322;48.146;11.516;2022-11-23T15:05:15;7.55;69.06
68378;DHT22;55322;48.146;11.516;2022-11-23T15:13:00;7.35;69.85
68378;DHT22;55322;48.146;11.516;2022-11-23T15:15:28;7.36;69.63
68378;DHT22;55322;48.146;11.516;2022-11-23T15:18:01;7.33;69.55
68378;DHT22;55322;48.146;11.516;2022-11-23T15:20:30;7.15;71.58
68378;DHT22;55322;48.146;11.516;2022-11-23T15:22:57;7.12;70.50
68378;DHT22;55322;48.146;11.516;2022-11-23T15:25:22;7.16;70.61
68378;DHT22;55322;48.146;11.516;2022-11-23T15:27:48;7.19;70.54
68378;DHT22;55322;48.146;11.516;2022-11-23T15:30:21;7.14;71.00
68378;DHT22;55322;48.146;11.516;2022-11-23T15:33:01;7.04;72.14
68378;DHT22;55322;48.146;11.516;2022-11-23T15:35:34;6.92;72.61
68378;DHT22;55322;48.146;11.516;2022-11-23T15:38:02;7.09;72.50
68378;DHT22;55322;48.146;11.516;2022-11-23T15:40:30;6.98;72.96
68378;DHT22;55322;48.146;11.516;2022-11-23T15:42:56;6.99;73.60
68378;DHT22;55322;48.146;11.516;2022-11-23T15:45:36;6.88;75.02
68378;DHT22;55322;48.146;11.516;2022-11-23T15:48:03;6.78;74.93
68378;DHT22;55322;48.146;11.516;2022-11-23T15:50:29;6.77;75.30
68378;DHT22;55322;48.146;11.516;2022-11-23T15:52:54;6.68;76.21
68378;DHT22;55322;48.146;11.516;2022-11-23T15:55:23;6.77;76.32
68378;DHT22;55322;48.146;11.516;2022-11-23T15:57:53;6.71;76.59
68378;DHT22;55322;48.146;11.516;2022-11-23T16:00:24;6.68;76.77
68378;DHT22;55322;48.146;11.516;2022-11-23T16:02:50;6.55;77.31
68378;DHT22;55322;48.146;11.516;2022-11-23T16:05:21;6.44;78.04
68378;DHT22;55322;48.146;11.516;2022-11-23T16:07:59;6.29;78.89
68378;DHT22;55322;48.146;11.516;2022-11-23T16:10:27;6.22;79.35
68378;DHT22;55322;48.146;11.516;2022-11-23T16:13:03;6.07;79.77
68378;DHT22;55322;48.146;11.516;2022-11-23T16:18:05;6.05;80.47
68378;DHT22;55322;48.146;11.516;2022-11-23T16:20:31;6.03;80.60
68378;DHT22;55322;48.146;11.516;2022-11-23T16:22:58;5.92;80.99
68378;DHT22;55322;48.146;11.516;2022-11-23T16:25:32;6.00;80.85
68378;DHT22;55322;48.146;11.516;2022-11-23T16:28:02;6.00;80.67
68378;DHT22;55322;48.146;11.516;2022-11-23T16:30:36;5.98;80.25
68378;DHT22;55322;48.146;11.516;2022-11-23T16:33:02;5.96;80.47
68378;DHT22;55322;48.146;11.516;2022-11-23T16:35:28;5.96;80.18
68378;DHT22;55322;48.146;11.516;2022-11-23T16:37:53;5.95;80.09
68378;DHT22;55322;48.146;11.516;2022-11-23T16:40:18;5.90;80.34
68378;DHT22;55322;48.146;11.516;2022-11-23T16:42:44;5.89;79.99
68378;DHT22;55322;48.146;11.516;2022-11-23T16:45:11;5.88;80.10
68378;DHT22;55322;48.146;11.516;2022-11-23T16:47:51;5.75;80.34
68378;DHT22;55322;48.146;11.516;2022-11-23T16:50:16;5.72;80.46
68378;DHT22;55322;48.146;11.516;2022-11-23T16:52:42;5.60;80.79
68378;DHT22;55322;48.146;11.516;2022-11-23T16:55:09;5.58;80.81
68378;DHT22;55322;48.146;11.516;2022-11-23T16:57:34;5.55;81.36
68378;DHT22;55322;48.146;11.516;2022-11-23T17:00:02;5.42;81.08
68378;DHT22;55322;48.146;11.516;2022-11-23T17:02:28;5.52;81.37
68378;DHT22;55322;48.146;11.516;2022-11-23T17:04:54;5.48;80.86
68378;DHT22;55322;48.146;11.516;2022-11-23T17:07:20;5.39;81.17
68378;DHT22;55322;48.146;11.516;2022-11-23T17:09:45;5.37;81.21
68378;DHT22;55322;48.146;11.516;2022-11-23T17:12:16;5.28;82.36
68378;DHT22;55322;48.146;11.516;2022-11-23T17:14:44;5.32;81.90
68378;DHT22;55322;48.146;11.516;2022-11-23T17:17:15;5.23;82.19
68378;DHT22;55322;48.146;11.516;2022-11-23T17:19:41;5.18;81.97
68378;DHT22;55322;48.146;11.516;2022-11-23T17:22:11;5.10;82.13